createdAt,value
2018-09-11T00:00:38.920Z,76.80
2018-09-11T00:01:42.408Z,76.80
2018-09-11T00:02:45.789Z,76.80
2018-09-11T00:03:49.261Z,76.90
2018-09-11T00:04:52.777Z,76.80
2018-09-11T00:05:56.180Z,76.80
2018-09-11T00:06:59.568Z,76.80
2018-09-11T00:08:02.995Z,76.90
2018-09-11T00:09:09.420Z,76.90
2018-09-11T00:10:13.951Z,77.00
2018-09-11T00:11:17.364Z,77.00
2018-09-11T00:12:20.821Z,77.00
2018-09-11T00:13:24.223Z,77.00
2018-09-11T00:14:27.779Z,77.10
2018-09-11T00:15:31.168Z,77.00
2018-09-11T00:16:34.583Z,77.00
2018-09-11T00:17:37.980Z,77.00
2018-09-11T00:18:41.544Z,77.10
2018-09-11T00:19:45.036Z,77.20
2018-09-11T00:20:48.464Z,77.20
2018-09-11T00:21:51.946Z,77.20
2018-09-11T00:22:55.414Z,77.20
2018-09-11T00:23:58.834Z,77.20
2018-09-11T00:25:02.228Z,77.20
2018-09-11T00:26:05.667Z,77.20
2018-09-11T00:27:09.145Z,77.20
2018-09-11T00:28:12.605Z,77.40
2018-09-11T00:29:15.997Z,78.00
2018-09-11T00:30:19.440Z,77.30
2018-09-11T00:31:22.982Z,77.30
2018-09-11T00:32:26.464Z,77.30
2018-09-11T00:33:29.876Z,77.30
2018-09-11T00:34:33.260Z,77.30
2018-09-11T00:35:36.684Z,77.30
2018-09-11T00:36:40.200Z,77.30
2018-09-11T00:37:43.584Z,77.40
2018-09-11T00:38:47.000Z,77.40
2018-09-11T00:39:50.433Z,77.40
2018-09-11T00:40:53.883Z,77.30
2018-09-11T00:41:57.275Z,77.40
2018-09-11T00:43:00.696Z,77.40
2018-09-11T00:44:04.101Z,77.50
2018-09-11T00:45:07.527Z,77.40
2018-09-11T00:46:10.919Z,77.50
2018-09-11T00:47:14.432Z,77.50
2018-09-11T00:48:17.956Z,78.20
2018-09-11T00:49:21.573Z,77.60
2018-09-11T00:50:25.012Z,77.60
2018-09-11T00:51:28.770Z,77.70
2018-09-11T00:52:32.176Z,77.70
2018-09-11T00:53:35.564Z,77.80
2018-09-11T00:54:39.017Z,77.70
2018-09-11T00:55:42.416Z,77.80
2018-09-11T00:56:45.823Z,77.80
2018-09-11T00:57:49.248Z,77.80
2018-09-11T00:58:53.003Z,77.90
2018-09-11T00:59:56.393Z,77.90
2018-09-11T01:00:59.847Z,78.00
2018-09-11T01:02:03.279Z,78.00
2018-09-11T01:03:07.095Z,77.90
2018-09-11T01:04:10.512Z,77.90
2018-09-11T01:05:13.941Z,78.00
2018-09-11T01:06:17.316Z,78.00
2018-09-11T01:07:20.764Z,78.10
2018-09-11T01:08:24.195Z,78.20
2018-09-11T01:09:27.585Z,78.10
2018-09-11T01:10:30.998Z,78.00
2018-09-11T01:11:34.561Z,78.10
2018-09-11T01:12:38.013Z,78.00
2018-09-11T01:13:41.411Z,78.00
2018-09-11T01:14:45.073Z,78.10
2018-09-11T01:15:48.580Z,78.10
2018-09-11T01:16:51.977Z,78.10
2018-09-11T01:17:55.479Z,78.00
2018-09-11T01:18:58.895Z,77.50
2018-09-11T01:20:02.360Z,78.00
2018-09-11T01:21:05.892Z,78.00
2018-09-11T01:22:09.292Z,78.00
2018-09-11T01:23:12.761Z,78.00
2018-09-11T01:24:16.266Z,78.00
2018-09-11T01:25:19.673Z,78.00
2018-09-11T01:26:23.141Z,78.00
2018-09-11T01:27:26.635Z,78.80
2018-09-11T01:28:30.245Z,78.60
2018-09-11T01:29:33.627Z,77.90
2018-09-11T01:30:37.085Z,78.00
2018-09-11T01:31:40.593Z,78.10
2018-09-11T01:32:44.041Z,77.90
2018-09-11T01:33:47.472Z,77.90
2018-09-11T01:34:50.869Z,77.80
2018-09-11T01:35:54.308Z,77.80
2018-09-11T01:36:58.373Z,77.80
2018-09-11T01:38:01.848Z,77.80
2018-09-11T01:39:08.165Z,77.90
2018-09-11T01:40:11.564Z,77.90
2018-09-11T01:41:15.033Z,77.90
2018-09-11T01:42:18.470Z,77.90
2018-09-11T01:43:22.177Z,77.90
2018-09-11T01:44:25.588Z,77.90
2018-09-11T01:45:29.041Z,78.00
2018-09-11T01:46:32.448Z,78.00
2018-09-11T01:47:35.836Z,78.00
2018-09-11T01:48:39.254Z,78.10
2018-09-11T01:49:42.659Z,78.10
2018-09-11T01:50:46.120Z,78.00
2018-09-11T01:51:49.532Z,78.20
2018-09-11T01:52:53.023Z,78.30
2018-09-11T01:53:56.429Z,78.30
2018-09-11T01:54:59.834Z,78.20
2018-09-11T01:56:03.560Z,78.20
2018-09-11T01:57:07.292Z,78.20
2018-09-11T01:58:10.694Z,78.20
2018-09-11T01:59:14.197Z,78.70
2018-09-11T02:00:18.610Z,78.20
2018-09-11T02:01:22.040Z,78.20
2018-09-11T02:02:25.473Z,78.20
2018-09-11T02:03:29.043Z,78.20
2018-09-11T02:04:32.484Z,78.20
2018-09-11T02:05:35.985Z,78.30
2018-09-11T02:06:39.391Z,78.30
2018-09-11T02:07:43.573Z,78.30
2018-09-11T02:08:47.007Z,78.30
2018-09-11T02:09:50.519Z,78.40
2018-09-11T02:10:53.906Z,78.40
2018-09-11T02:11:57.363Z,78.40
2018-09-11T02:13:00.802Z,78.40
2018-09-11T02:14:04.364Z,78.40
2018-09-11T02:15:08.559Z,79.10
2018-09-11T02:16:12.258Z,78.50
2018-09-11T02:17:15.764Z,78.50
2018-09-11T02:18:19.175Z,78.50
2018-09-11T02:19:22.633Z,78.50
2018-09-11T02:20:26.080Z,78.50
2018-09-11T02:21:29.540Z,78.40
2018-09-11T02:22:33.057Z,78.50
2018-09-11T02:23:36.480Z,78.50
2018-09-11T02:24:39.872Z,79.10
2018-09-11T02:25:43.417Z,78.50
2018-09-11T02:26:46.800Z,78.50
2018-09-11T02:27:51.475Z,78.60
2018-09-11T02:28:54.968Z,79.00
2018-09-11T02:29:58.464Z,78.50
2018-09-11T02:31:01.855Z,78.50
2018-09-11T02:32:05.424Z,78.50
2018-09-11T02:33:08.862Z,79.20
2018-09-11T02:34:12.245Z,78.60
2018-09-11T02:35:15.665Z,78.60
2018-09-11T02:36:19.144Z,78.60
2018-09-11T02:37:22.836Z,78.60
2018-09-11T02:38:26.528Z,78.60
2018-09-11T02:39:29.977Z,78.60
2018-09-11T02:40:33.556Z,78.70
2018-09-11T02:41:37.342Z,78.70
2018-09-11T02:42:40.861Z,78.60
2018-09-11T02:43:44.287Z,78.70
2018-09-11T02:44:47.712Z,78.60
2018-09-11T02:45:51.116Z,78.60
2018-09-11T02:46:54.519Z,78.60
2018-09-11T02:47:57.925Z,78.60
2018-09-11T02:49:01.359Z,78.70
2018-09-11T02:50:05.620Z,78.70
2018-09-11T02:51:09.113Z,78.70
2018-09-11T02:52:12.651Z,78.70
2018-09-11T02:53:16.107Z,78.70
2018-09-11T02:54:19.491Z,78.70
2018-09-11T02:55:22.904Z,78.80
2018-09-11T02:56:26.336Z,78.80
2018-09-11T02:57:29.740Z,78.80
2018-09-11T02:58:33.163Z,78.90
2018-09-11T02:59:36.608Z,78.90
2018-09-11T03:00:40.016Z,78.90
2018-09-11T03:01:43.431Z,79.00
2018-09-11T03:02:46.896Z,79.00
2018-09-11T03:03:50.316Z,78.90
2018-09-11T03:04:53.756Z,79.00
2018-09-11T03:05:57.165Z,79.10
2018-09-11T03:07:00.564Z,79.10
2018-09-11T03:08:03.980Z,79.10
2018-09-11T03:09:07.782Z,79.10
2018-09-11T03:10:11.175Z,79.10
2018-09-11T03:11:14.644Z,79.10
2018-09-11T03:12:18.094Z,79.10
2018-09-11T03:13:21.567Z,79.20
2018-09-11T03:14:24.968Z,79.20
2018-09-11T03:15:28.448Z,79.20
2018-09-11T03:16:31.840Z,79.30
2018-09-11T03:17:35.432Z,79.30
2018-09-11T03:18:38.953Z,79.30
2018-09-11T03:19:42.385Z,79.40
2018-09-11T03:20:45.776Z,79.50
2018-09-11T03:21:49.219Z,79.40
2018-09-11T03:22:52.621Z,79.40
2018-09-11T03:23:56.057Z,79.40
2018-09-11T03:24:59.581Z,79.40
2018-09-11T03:26:03.015Z,79.40
2018-09-11T03:27:06.442Z,79.40
2018-09-11T03:28:09.917Z,79.50
2018-09-11T03:29:13.336Z,79.50
2018-09-11T03:30:16.747Z,79.50
2018-09-11T03:31:20.259Z,79.60
2018-09-11T03:32:23.756Z,79.50
2018-09-11T03:33:27.292Z,79.60
2018-09-11T03:34:30.696Z,79.60
2018-09-11T03:35:34.131Z,79.60
2018-09-11T03:36:37.543Z,80.20
2018-09-11T03:37:40.990Z,79.50
2018-09-11T03:38:44.592Z,79.70
2018-09-11T03:39:48.016Z,79.70
2018-09-11T03:40:51.580Z,79.60
2018-09-11T03:41:55.114Z,79.70
2018-09-11T03:42:58.605Z,79.60
2018-09-11T03:44:02.046Z,79.70
2018-09-11T03:45:05.887Z,79.70
2018-09-11T03:46:09.288Z,79.70
2018-09-11T03:47:12.692Z,79.70
2018-09-11T03:48:18.047Z,79.80
2018-09-11T03:49:21.460Z,79.80
2018-09-11T03:50:24.873Z,79.80
2018-09-11T03:51:28.388Z,79.90
2018-09-11T03:52:31.820Z,79.90
2018-09-11T03:53:35.233Z,79.90
2018-09-11T03:54:38.668Z,79.90
2018-09-11T03:55:42.060Z,79.90
2018-09-11T03:56:45.452Z,79.90
2018-09-11T03:57:48.963Z,79.90
2018-09-11T03:58:52.508Z,80.00
2018-09-11T03:59:55.893Z,80.60
2018-09-11T04:00:59.380Z,80.00
2018-09-11T04:02:02.961Z,80.00
2018-09-11T04:03:06.409Z,80.00
2018-09-11T04:04:09.839Z,80.00
2018-09-11T04:05:13.260Z,80.10
2018-09-11T04:06:16.636Z,80.10
2018-09-11T04:07:20.201Z,80.50
2018-09-11T04:08:23.693Z,79.70
2018-09-11T04:09:27.103Z,80.00
2018-09-11T04:10:30.551Z,80.00
2018-09-11T04:11:33.951Z,80.10
2018-09-11T04:12:37.375Z,80.00
2018-09-11T04:13:40.829Z,80.10
2018-09-11T04:14:44.231Z,80.20
2018-09-11T04:15:47.647Z,80.10
2018-09-11T04:16:51.080Z,80.20
2018-09-11T04:17:54.471Z,80.10
2018-09-11T04:18:57.904Z,80.20
2018-09-11T04:20:01.305Z,80.20
2018-09-11T04:21:04.721Z,80.30
2018-09-11T04:22:08.137Z,80.30
2018-09-11T04:23:11.702Z,80.30
2018-09-11T04:24:15.150Z,80.90
2018-09-11T04:25:18.565Z,80.40
2018-09-11T04:26:22.040Z,80.40
2018-09-11T04:27:25.483Z,80.40
2018-09-11T04:28:29.055Z,81.10
2018-09-11T04:29:32.549Z,80.50
2018-09-11T04:30:35.953Z,80.50
2018-09-11T04:31:39.365Z,80.60
2018-09-11T04:32:42.845Z,80.60
2018-09-11T04:33:46.346Z,80.60
2018-09-11T04:34:49.745Z,80.70
2018-09-11T04:35:53.169Z,80.70
2018-09-11T04:36:56.712Z,80.70
2018-09-11T04:38:00.160Z,80.80
2018-09-11T04:39:04.955Z,80.70
2018-09-11T04:40:08.416Z,80.80
2018-09-11T04:41:12.015Z,80.70
2018-09-11T04:42:15.419Z,80.80
2018-09-11T04:43:18.869Z,80.80
2018-09-11T04:44:22.280Z,80.90
2018-09-11T04:45:25.677Z,80.90
2018-09-11T04:46:29.071Z,81.00
2018-09-11T04:47:32.564Z,81.10
2018-09-11T04:48:35.994Z,81.10
2018-09-11T04:49:39.417Z,81.10
2018-09-11T04:50:42.831Z,81.10
2018-09-11T04:51:46.424Z,81.10
2018-09-11T04:52:49.835Z,81.10
2018-09-11T04:53:53.269Z,81.20
2018-09-11T04:54:56.712Z,81.10
2018-09-11T04:56:00.233Z,81.20
2018-09-11T04:57:03.664Z,81.20
2018-09-11T04:58:07.454Z,81.20
2018-09-11T04:59:10.852Z,81.30
2018-09-11T05:00:14.404Z,81.20
2018-09-11T05:01:17.797Z,81.20
2018-09-11T05:02:21.209Z,81.30
2018-09-11T05:03:24.756Z,81.30
2018-09-11T05:04:28.321Z,81.40
2018-09-11T05:05:31.720Z,81.30
2018-09-11T05:06:35.144Z,81.30
2018-09-11T05:07:38.765Z,81.30
2018-09-11T05:08:42.176Z,81.40
2018-09-11T05:09:45.653Z,81.40
2018-09-11T05:10:49.150Z,81.40
2018-09-11T05:11:52.584Z,81.40
2018-09-11T05:12:56.005Z,81.40
2018-09-11T05:13:59.408Z,81.40
2018-09-11T05:15:02.808Z,81.40
2018-09-11T05:16:06.280Z,81.40
2018-09-11T05:17:09.696Z,81.40
2018-09-11T05:18:13.257Z,81.40
2018-09-11T05:19:16.777Z,81.40
2018-09-11T05:20:20.142Z,81.50
2018-09-11T05:21:23.547Z,81.50
2018-09-11T05:22:26.966Z,81.50
2018-09-11T05:23:30.416Z,81.40
2018-09-11T05:24:33.816Z,81.50
2018-09-11T05:25:37.267Z,81.50
2018-09-11T05:26:40.924Z,81.50
2018-09-11T05:27:44.348Z,81.50
2018-09-11T05:28:47.784Z,81.60
2018-09-11T05:29:51.185Z,81.50
2018-09-11T05:30:54.676Z,81.50
2018-09-11T05:31:58.095Z,81.60
2018-09-11T05:33:01.550Z,81.80
2018-09-11T05:34:04.943Z,81.50
2018-09-11T05:35:08.340Z,81.60
2018-09-11T05:36:11.743Z,81.60
2018-09-11T05:37:15.175Z,81.50
2018-09-11T05:38:18.671Z,81.50
2018-09-11T05:39:22.069Z,81.50
2018-09-11T05:40:25.512Z,81.50
2018-09-11T05:41:29.633Z,81.50
2018-09-11T05:42:33.114Z,81.50
2018-09-11T05:43:36.545Z,81.50
2018-09-11T05:44:40.028Z,81.40
2018-09-11T05:45:43.437Z,81.50
2018-09-11T05:46:46.832Z,81.50
2018-09-11T05:47:50.233Z,81.40
2018-09-11T05:48:53.801Z,81.40
2018-09-11T05:49:57.196Z,81.50
2018-09-11T05:51:00.784Z,81.50
2018-09-11T05:52:04.279Z,81.50
2018-09-11T05:53:07.737Z,81.50
2018-09-11T05:54:11.196Z,81.50
2018-09-11T05:55:14.645Z,81.50
2018-09-11T05:56:18.032Z,81.50
2018-09-11T05:57:21.456Z,81.50
2018-09-11T05:58:25.027Z,81.40
2018-09-11T05:59:28.400Z,81.40
2018-09-11T06:00:31.799Z,81.40
2018-09-11T06:01:35.221Z,81.50
2018-09-11T06:02:38.612Z,81.50
2018-09-11T06:03:42.163Z,81.60
2018-09-11T06:04:45.816Z,81.60
2018-09-11T06:05:49.258Z,81.60
2018-09-11T06:06:52.857Z,81.50
2018-09-11T06:07:56.298Z,81.60
2018-09-11T06:08:59.772Z,82.20
2018-09-11T06:10:03.402Z,82.20
2018-09-11T06:11:06.894Z,81.60
2018-09-11T06:12:10.432Z,81.60
2018-09-11T06:13:13.857Z,81.60
2018-09-11T06:14:17.272Z,81.60
2018-09-11T06:15:20.679Z,81.60
2018-09-11T06:16:24.596Z,81.60
2018-09-11T06:17:28.140Z,81.60
2018-09-11T06:18:31.572Z,81.70
2018-09-11T06:19:34.962Z,81.60
2018-09-11T06:20:38.377Z,81.70
2018-09-11T06:21:42.005Z,81.70
2018-09-11T06:22:45.400Z,81.70
2018-09-11T06:23:48.890Z,81.80
2018-09-11T06:24:52.321Z,81.70
2018-09-11T06:25:55.812Z,81.70
2018-09-11T06:26:59.212Z,81.70
2018-09-11T06:28:02.637Z,81.70
2018-09-11T06:29:06.080Z,81.70
2018-09-11T06:30:09.508Z,81.70
2018-09-11T06:31:13.014Z,81.60
2018-09-11T06:32:16.419Z,82.30
2018-09-11T06:33:19.920Z,81.60
2018-09-11T06:34:23.489Z,81.70
2018-09-11T06:35:26.940Z,81.70
2018-09-11T06:36:30.322Z,81.70
2018-09-11T06:37:33.848Z,81.50
2018-09-11T06:38:37.268Z,81.50
2018-09-11T06:39:40.808Z,81.70
2018-09-11T06:40:44.232Z,81.70
2018-09-11T06:41:47.723Z,81.70
2018-09-11T06:42:51.243Z,81.60
2018-09-11T06:43:54.721Z,81.60
2018-09-11T06:44:58.099Z,81.60
2018-09-11T06:46:02.372Z,81.60
2018-09-11T06:47:05.848Z,82.20
2018-09-11T06:48:09.416Z,82.30
2018-09-11T06:49:12.829Z,82.30
2018-09-11T06:50:16.296Z,81.70
2018-09-11T06:51:19.807Z,81.70
2018-09-11T06:52:23.292Z,81.70
2018-09-11T06:53:26.965Z,81.60
2018-09-11T06:54:30.352Z,81.60
2018-09-11T06:55:33.796Z,81.60
2018-09-11T06:56:37.237Z,81.70
2018-09-11T06:57:40.636Z,81.70
2018-09-11T06:58:44.040Z,81.70
2018-09-11T06:59:47.484Z,81.70
2018-09-11T07:00:51.198Z,81.70
2018-09-11T07:01:54.676Z,81.70
2018-09-11T07:02:58.075Z,81.70
2018-09-11T07:04:01.575Z,81.70
2018-09-11T07:05:04.981Z,81.70
2018-09-11T07:06:08.428Z,81.70
2018-09-11T07:07:11.936Z,81.80
2018-09-11T07:08:15.431Z,81.80
2018-09-11T07:09:18.841Z,81.80
2018-09-11T07:10:22.259Z,81.80
2018-09-11T07:11:25.733Z,81.80
2018-09-11T07:12:29.144Z,82.40
2018-09-11T07:13:32.556Z,81.90
2018-09-11T07:14:35.954Z,81.90
2018-09-11T07:15:39.444Z,81.90
2018-09-11T07:16:43.028Z,82.00
2018-09-11T07:17:46.407Z,82.00
2018-09-11T07:18:49.832Z,81.90
2018-09-11T07:19:53.372Z,81.90
2018-09-11T07:20:56.694Z,81.90
2018-09-11T07:22:00.180Z,82.00
2018-09-11T07:23:03.583Z,81.90
2018-09-11T07:24:07.539Z,82.50
2018-09-11T07:25:10.980Z,81.80
2018-09-11T07:26:14.958Z,81.80
2018-09-11T07:27:18.441Z,81.80
2018-09-11T07:28:22.156Z,81.90
2018-09-11T07:29:25.629Z,81.90
2018-09-11T07:30:29.083Z,81.90
2018-09-11T07:31:32.521Z,81.90
2018-09-11T07:32:36.089Z,81.90
2018-09-11T07:33:39.481Z,81.90
2018-09-11T07:34:42.957Z,81.90
2018-09-11T07:35:46.453Z,81.90
2018-09-11T07:36:50.165Z,82.00
2018-09-11T07:37:53.583Z,82.10
2018-09-11T07:38:57.107Z,82.10
2018-09-11T07:40:00.559Z,82.10
2018-09-11T07:41:03.980Z,82.10
2018-09-11T07:42:07.417Z,82.20
2018-09-11T07:43:10.795Z,82.20
2018-09-11T07:44:14.320Z,82.30
2018-09-11T07:45:17.842Z,82.90
2018-09-11T07:46:21.224Z,82.30
2018-09-11T07:47:24.700Z,82.40
2018-09-11T07:48:28.166Z,82.40
2018-09-11T07:49:31.608Z,82.50
2018-09-11T07:50:35.036Z,82.50
2018-09-11T07:51:38.428Z,82.60
2018-09-11T07:52:41.990Z,82.50
2018-09-11T07:53:45.297Z,82.60
2018-09-11T07:54:48.696Z,82.70
2018-09-11T07:55:52.208Z,82.80
2018-09-11T07:56:55.640Z,82.80
2018-09-11T07:57:59.120Z,83.00
2018-09-11T07:59:02.651Z,83.10
2018-09-11T08:00:06.596Z,83.10
2018-09-11T08:01:10.026Z,83.10
2018-09-11T08:02:13.436Z,83.10
2018-09-11T08:03:16.856Z,83.10
2018-09-11T08:04:20.295Z,83.20
2018-09-11T08:05:23.733Z,83.90
2018-09-11T08:06:27.160Z,83.40
2018-09-11T08:07:30.584Z,83.40
2018-09-11T08:08:34.152Z,83.40
2018-09-11T08:09:37.576Z,83.40
2018-09-11T08:10:41.009Z,83.40
2018-09-11T08:11:44.407Z,83.50
2018-09-11T08:12:48.061Z,83.60
2018-09-11T08:13:51.459Z,83.60
2018-09-11T08:14:54.993Z,83.70
2018-09-11T08:15:58.425Z,83.70
2018-09-11T08:17:01.803Z,83.80
2018-09-11T08:18:05.695Z,83.90
2018-09-11T08:19:09.088Z,84.20
2018-09-11T08:20:12.646Z,83.70
2018-09-11T08:21:16.121Z,83.80
2018-09-11T08:22:19.693Z,83.90
2018-09-11T08:23:23.095Z,84.10
2018-09-11T08:24:26.600Z,84.20
2018-09-11T08:25:30.024Z,84.20
2018-09-11T08:26:33.436Z,84.20
2018-09-11T08:27:36.927Z,84.30
2018-09-11T08:28:40.332Z,84.20
2018-09-11T08:29:43.912Z,84.20
2018-09-11T08:30:47.353Z,84.20
2018-09-11T08:31:50.845Z,84.40
2018-09-11T08:32:54.282Z,84.40
2018-09-11T08:33:57.941Z,83.80
2018-09-11T08:35:01.373Z,84.40
2018-09-11T08:36:04.760Z,84.50
2018-09-11T08:37:08.215Z,84.50
2018-09-11T08:38:11.641Z,85.10
2018-09-11T08:39:15.128Z,84.50
2018-09-11T08:40:18.548Z,84.60
2018-09-11T08:41:22.052Z,84.60
2018-09-11T08:42:25.480Z,84.70
2018-09-11T08:43:28.889Z,84.70
2018-09-11T08:44:32.352Z,84.80
2018-09-11T08:45:35.776Z,84.90
2018-09-11T08:46:39.243Z,84.80
2018-09-11T08:47:42.688Z,84.80
2018-09-11T08:48:46.114Z,84.70
2018-09-11T08:49:49.558Z,84.60
2018-09-11T08:50:52.993Z,84.60
2018-09-11T08:51:56.380Z,84.60
2018-09-11T08:52:59.780Z,84.60
2018-09-11T08:54:03.213Z,84.80
2018-09-11T08:55:06.967Z,84.60
2018-09-11T08:56:10.648Z,84.60
2018-09-11T08:57:14.089Z,85.00
2018-09-11T08:58:17.501Z,84.30
2018-09-11T08:59:20.967Z,84.50
2018-09-11T09:00:24.412Z,84.50
2018-09-11T09:01:27.969Z,84.50
2018-09-11T09:02:31.436Z,84.50
2018-09-11T09:03:34.920Z,84.30
2018-09-11T09:04:38.499Z,84.40
2018-09-11T09:05:41.901Z,84.30
2018-09-11T09:06:45.295Z,84.30
2018-09-11T09:07:48.809Z,84.20
2018-09-11T09:08:52.242Z,84.10
2018-09-11T09:09:55.864Z,84.10
2018-09-11T09:10:59.289Z,84.20
2018-09-11T09:12:02.745Z,84.00
2018-09-11T09:13:06.233Z,84.10
2018-09-11T09:14:09.757Z,83.70
2018-09-11T09:15:13.185Z,83.60
2018-09-11T09:16:16.660Z,83.30
2018-09-11T09:17:20.180Z,83.50
2018-09-11T09:18:23.570Z,83.60
2018-09-11T09:19:26.983Z,83.60
2018-09-11T09:20:30.399Z,83.50
2018-09-11T09:21:33.796Z,83.50
2018-09-11T09:22:37.318Z,83.50
2018-09-11T09:23:40.722Z,83.30
2018-09-11T09:24:44.121Z,83.40
2018-09-11T09:25:47.709Z,83.20
2018-09-11T09:26:51.119Z,83.00
2018-09-11T09:27:54.659Z,82.70
2018-09-11T09:28:58.152Z,82.50
2018-09-11T09:30:01.684Z,82.40
2018-09-11T09:31:05.073Z,82.30
2018-09-11T09:32:08.492Z,82.30
2018-09-11T09:33:11.963Z,82.40
2018-09-11T09:34:15.447Z,82.80
2018-09-11T09:35:18.883Z,82.10
2018-09-11T09:36:22.511Z,82.10
2018-09-11T09:37:25.925Z,82.10
2018-09-11T09:38:29.324Z,81.70
2018-09-11T09:39:32.833Z,81.50
2018-09-11T09:40:36.237Z,81.40
2018-09-11T09:41:39.695Z,81.00
2018-09-11T09:42:43.149Z,81.00
2018-09-11T09:43:46.633Z,81.60
2018-09-11T09:44:49.989Z,80.20
2018-09-11T09:45:53.436Z,80.10
2018-09-11T09:46:56.932Z,80.00
2018-09-11T09:48:00.380Z,80.00
2018-09-11T09:49:03.801Z,80.00
2018-09-11T09:50:07.215Z,79.60
2018-09-11T09:51:10.624Z,79.50
2018-09-11T09:52:14.060Z,79.30
2018-09-11T09:53:17.480Z,79.30
2018-09-11T09:54:20.897Z,79.40
2018-09-11T09:55:24.369Z,79.40
2018-09-11T09:56:27.762Z,79.50
2018-09-11T09:57:31.248Z,79.60
2018-09-11T09:58:34.788Z,79.60
2018-09-11T09:59:38.393Z,79.30
2018-09-11T10:00:47.216Z,79.00
2018-09-11T10:01:55.958Z,78.60
2018-09-11T10:02:59.345Z,78.60
2018-09-11T10:04:02.794Z,78.50
2018-09-11T10:05:06.272Z,78.50
2018-09-11T10:06:09.712Z,78.10
2018-09-11T10:07:13.097Z,78.10
2018-09-11T10:08:16.558Z,77.90
2018-09-11T10:09:19.947Z,77.90
2018-09-11T10:10:23.565Z,77.70
2018-09-11T10:11:26.950Z,77.20
2018-09-11T10:12:30.451Z,77.60
2018-09-11T10:13:33.928Z,77.40
2018-09-11T10:14:37.401Z,77.20
2018-09-11T10:15:40.832Z,77.00
2018-09-11T10:16:44.298Z,77.00
2018-09-11T10:17:47.716Z,76.80
2018-09-11T10:18:51.202Z,76.80
2018-09-11T10:19:54.660Z,76.70
2018-09-11T10:20:58.092Z,76.60
2018-09-11T10:22:01.673Z,76.60
2018-09-11T10:23:05.168Z,76.50
2018-09-11T10:24:08.620Z,77.00
2018-09-11T10:25:12.035Z,76.80
2018-09-11T10:26:15.560Z,76.10
2018-09-11T10:27:19.012Z,75.90
2018-09-11T10:28:22.453Z,75.90
2018-09-11T10:29:25.964Z,75.90
2018-09-11T10:30:29.485Z,75.70
2018-09-11T10:31:32.944Z,75.70
2018-09-11T10:32:36.408Z,76.40
2018-09-11T10:33:39.837Z,75.60
2018-09-11T10:34:43.373Z,75.60
2018-09-11T10:35:46.797Z,75.60
2018-09-11T10:36:50.190Z,75.80
2018-09-11T10:37:53.621Z,76.50
2018-09-11T10:38:57.014Z,75.90
2018-09-11T10:40:00.447Z,76.00
2018-09-11T10:41:03.957Z,75.80
2018-09-11T10:42:07.384Z,75.60
2018-09-11T10:43:10.810Z,75.20
2018-09-11T10:44:14.213Z,75.00
2018-09-11T10:45:17.640Z,74.80
2018-09-11T10:46:21.046Z,74.80
2018-09-11T10:47:24.451Z,74.60
2018-09-11T10:48:27.859Z,74.50
2018-09-11T10:49:31.598Z,73.90
2018-09-11T10:50:35.015Z,73.50
2018-09-11T10:51:38.830Z,73.40
2018-09-11T10:52:42.252Z,73.30
2018-09-11T10:53:45.704Z,73.30
2018-09-11T10:54:49.119Z,73.00
2018-09-11T10:55:52.588Z,72.90
2018-09-11T10:56:56.173Z,72.80
2018-09-11T10:57:59.610Z,73.10
2018-09-11T10:59:03.092Z,72.30
2018-09-11T11:00:06.546Z,71.70
2018-09-11T11:01:09.952Z,71.40
2018-09-11T11:02:13.341Z,71.50
2018-09-11T11:03:16.765Z,71.70
2018-09-11T11:04:20.224Z,71.70
2018-09-11T11:05:23.660Z,71.70
2018-09-11T11:06:27.121Z,71.90
2018-09-11T11:07:30.680Z,72.00
2018-09-11T11:08:34.163Z,71.80
2018-09-11T11:09:37.576Z,72.30
2018-09-11T11:10:41.049Z,72.10
2018-09-11T11:11:44.530Z,71.80
2018-09-11T11:12:47.928Z,71.60
2018-09-11T11:13:51.360Z,71.70
2018-09-11T11:14:54.778Z,71.60
2018-09-11T11:15:58.190Z,71.80
2018-09-11T11:17:01.683Z,71.80
2018-09-11T11:18:05.408Z,71.70
2018-09-11T11:19:08.804Z,71.80
2018-09-11T11:20:12.228Z,71.80
2018-09-11T11:21:15.656Z,71.70
2018-09-11T11:22:19.065Z,71.80
2018-09-11T11:23:22.548Z,71.80
2018-09-11T11:24:26.041Z,72.30
2018-09-11T11:25:29.446Z,71.20
2018-09-11T11:26:32.899Z,70.90
2018-09-11T11:27:36.403Z,70.90
2018-09-11T11:28:39.996Z,70.80
2018-09-11T11:29:43.822Z,70.80
2018-09-11T11:30:47.276Z,70.70
2018-09-11T11:31:50.692Z,70.50
2018-09-11T11:32:54.110Z,70.10
2018-09-11T11:33:57.658Z,70.30
2018-09-11T11:35:01.128Z,70.10
2018-09-11T11:36:04.680Z,69.40
2018-09-11T11:37:08.191Z,69.00
2018-09-11T11:38:11.575Z,68.30
2018-09-11T11:39:14.960Z,67.80
2018-09-11T11:40:18.513Z,67.80
2018-09-11T11:41:21.938Z,67.80
2018-09-11T11:42:25.464Z,67.90
2018-09-11T11:43:28.803Z,68.00
2018-09-11T11:44:32.244Z,68.20
2018-09-11T11:45:35.678Z,67.90
2018-09-11T11:46:39.254Z,67.30
2018-09-11T11:47:42.717Z,67.90
2018-09-11T11:48:46.196Z,67.30
2018-09-11T11:49:50.920Z,67.40
2018-09-11T11:50:54.448Z,67.50
2018-09-11T11:51:57.869Z,67.50
2018-09-11T11:53:01.407Z,67.50
2018-09-11T11:54:04.797Z,67.30
2018-09-11T11:55:08.288Z,67.30
2018-09-11T11:56:11.728Z,67.00
2018-09-11T11:57:15.273Z,67.00
2018-09-11T11:58:18.715Z,67.10
2018-09-11T11:59:22.168Z,67.30
2018-09-11T12:00:25.677Z,67.40
2018-09-11T12:01:29.146Z,67.50
2018-09-11T12:02:32.533Z,67.50
2018-09-11T12:03:35.973Z,67.10
2018-09-11T12:04:39.507Z,66.50
2018-09-11T12:05:42.933Z,66.10
2018-09-11T12:06:46.379Z,65.60
2018-09-11T12:07:49.824Z,65.40
2018-09-11T12:08:53.239Z,65.20
2018-09-11T12:09:56.644Z,64.00
2018-09-11T12:11:00.140Z,64.00
2018-09-11T12:12:03.593Z,64.30
2018-09-11T12:13:07.049Z,63.90
2018-09-11T12:14:10.500Z,63.90
2018-09-11T12:15:13.924Z,64.00
2018-09-11T12:16:17.354Z,64.20
2018-09-11T12:17:20.761Z,64.30
2018-09-11T12:18:24.178Z,64.00
2018-09-11T12:19:27.694Z,63.80
2018-09-11T12:20:31.219Z,64.30
2018-09-11T12:21:34.621Z,63.50
2018-09-11T12:22:38.093Z,62.90
2018-09-11T12:23:41.503Z,62.60
2018-09-11T12:24:44.963Z,62.40
2018-09-11T12:25:48.404Z,62.70
2018-09-11T12:26:52.023Z,62.90
2018-09-11T12:27:55.416Z,63.00
2018-09-11T12:28:58.847Z,62.90
2018-09-11T12:30:02.261Z,62.30
2018-09-11T12:31:05.840Z,62.50
2018-09-11T12:32:09.208Z,62.50
2018-09-11T12:33:12.684Z,62.10
2018-09-11T12:34:16.085Z,61.90
2018-09-11T12:35:19.562Z,61.90
2018-09-11T12:36:22.972Z,62.10
2018-09-11T12:37:26.380Z,62.20
2018-09-11T12:38:29.800Z,62.50
2018-09-11T12:39:33.264Z,62.60
2018-09-11T12:40:36.668Z,62.60
2018-09-11T12:41:40.210Z,62.10
2018-09-11T12:42:43.714Z,61.70
2018-09-11T12:43:47.128Z,61.40
2018-09-11T12:44:50.583Z,61.30
2018-09-11T12:45:54.174Z,61.20
2018-09-11T12:46:57.616Z,61.20
2018-09-11T12:48:01.427Z,61.20
2018-09-11T12:49:04.387Z,61.40
2018-09-11T12:50:07.780Z,61.40
2018-09-11T12:51:11.244Z,60.70
2018-09-11T12:52:14.885Z,59.90
2018-09-11T12:53:18.360Z,59.60
2018-09-11T12:54:21.760Z,59.60
2018-09-11T12:55:25.180Z,59.70
2018-09-11T12:56:28.606Z,59.90
2018-09-11T12:57:32.039Z,59.50
2018-09-11T12:58:35.483Z,60.00
2018-09-11T12:59:38.913Z,59.60
2018-09-11T13:00:42.324Z,59.50
2018-09-11T13:01:45.814Z,59.60
2018-09-11T13:02:49.276Z,59.60
2018-09-11T13:03:52.701Z,59.50
2018-09-11T13:04:56.145Z,59.30
2018-09-11T13:05:59.807Z,59.10
2018-09-11T13:07:03.344Z,58.70
2018-09-11T13:08:06.760Z,58.70
2018-09-11T13:09:10.185Z,58.70
2018-09-11T13:10:13.619Z,58.70
2018-09-11T13:11:17.049Z,58.80
2018-09-11T13:12:20.442Z,59.00
2018-09-11T13:13:23.896Z,59.10
2018-09-11T13:14:27.307Z,59.20
2018-09-11T13:15:30.786Z,59.20
2018-09-11T13:16:40.771Z,59.30
2018-09-11T13:17:44.256Z,59.20
2018-09-11T13:18:47.893Z,58.80
2018-09-11T13:19:51.332Z,58.80
2018-09-11T13:20:54.751Z,58.60
2018-09-11T13:21:58.230Z,58.30
2018-09-11T13:23:01.636Z,58.10
2018-09-11T13:24:05.132Z,58.10
2018-09-11T13:25:08.568Z,58.40
2018-09-11T13:26:11.966Z,58.40
2018-09-11T13:27:15.536Z,57.80
2018-09-11T13:28:18.949Z,57.50
2018-09-11T13:29:22.366Z,57.10
2018-09-11T13:30:25.800Z,57.10
2018-09-11T13:31:29.307Z,57.10
2018-09-11T13:32:32.728Z,57.40
2018-09-11T13:33:36.184Z,57.40
2018-09-11T13:34:39.594Z,58.00
2018-09-11T13:35:43.001Z,57.70
2018-09-11T13:36:46.395Z,57.70
2018-09-11T13:37:49.880Z,57.10